Time;durP1;ratioP1;P1;durP2;ratioP2;P2;SDS_P1;SDS_P2;PMS_P1;PMS_P2;Temp;Humidity;BMP_temperature;BMP_pressure;BME280_temperature;BME280_humidity;BME280_pressure;Samples;Min_cycle;Max_cycle;Signal;HPM_P1;HPM_P2
2022/01/24 00:00:24;;;;;;;2.57;2.37;;;17.00;59.90;;;;;;5074176;28;20537;-79
2022/01/24 00:02:51;;;;;;;3.00;2.80;;;17.00;59.90;;;;;;5073208;28;20437;-79
2022/01/24 00:05:20;;;;;;;2.57;2.37;;;17.00;60.00;;;;;;5073380;28;20449;-79
2022/01/24 00:07:48;;;;;;;2.77;2.47;;;17.00;59.90;;;;;;5073118;28;20560;-79
2022/01/24 00:10:24;;;;;;;2.67;2.47;;;17.00;60.10;;;;;;5072276;28;20569;-80
2022/01/24 00:13:06;;;;;;;2.37;2.27;;;17.00;60.10;;;;;;5072968;28;20476;-79
2022/01/24 00:15:56;;;;;;;4.10;2.80;;;17.00;59.90;;;;;;5072091;28;20540;-79
2022/01/24 00:26:40;;;;;;;2.80;2.60;;;17.00;60.20;;;;;;5074582;28;21082;-79
2022/01/24 00:26:53;;;;;;;2.97;2.77;;;17.00;60.20;;;;;;5073587;28;20572;-79
2022/01/24 00:29:23;;;;;;;3.27;2.93;;;17.00;60.20;;;;;;5072763;28;20444;-81
2022/01/24 00:31:50;;;;;;;3.73;2.70;;;17.00;60.10;;;;;;5072757;28;20532;-79
2022/01/24 00:34:19;;;;;;;3.13;2.93;;;17.00;60.00;;;;;;5072407;28;20484;-79
2022/01/24 00:36:48;;;;;;;3.27;2.93;;;16.90;60.10;;;;;;5072368;28;20430;-79
2022/01/24 00:39:16;;;;;;;3.17;2.97;;;16.90;60.00;;;;;;5065514;28;20556;-79
2022/01/24 00:41:50;;;;;;;3.20;3.00;;;16.90;60.00;;;;;;5065534;28;20526;-80
2022/01/24 00:47:05;;;;;;;3.70;2.83;;;16.90;60.30;;;;;;5066571;28;20569;-80
2022/01/24 00:55:06;;;;;;;2.60;2.50;;;16.90;60.20;;;;;;5072282;28;20887;-79
2022/01/24 00:57:34;;;;;;;3.20;3.00;;;16.90;60.20;;;;;;5069783;28;20536;-79
2022/01/24 01:00:04;;;;;;;3.30;3.10;;;16.90;60.20;;;;;;5071191;28;20481;-79
2022/01/24 01:02:32;;;;;;;2.80;2.60;;;16.90;60.20;;;;;;5072582;28;20534;-80
2022/01/24 01:05:09;;;;;;;3.00;2.80;;;16.90;60.20;;;;;;5074530;28;20483;-80
2022/01/24 01:07:51;;;;;;;2.93;2.73;;;16.90;60.20;;;;;;5070678;28;20553;-80
2022/01/24 01:18:37;;;;;;;3.47;2.93;;;16.90;60.10;;;;;;5072629;28;20440;-80
2022/01/24 01:21:12;;;;;;;3.00;2.80;;;16.90;60.10;;;;;;5070322;28;20525;-79
2022/01/24 01:23:44;;;;;;;3.10;2.90;;;16.90;60.00;;;;;;5069453;28;20552;-79
2022/01/24 01:26:19;;;;;;;3.27;2.97;;;16.90;60.20;;;;;;5069008;28;20441;-79
2022/01/24 01:28:51;;;;;;;2.90;2.70;;;16.90;60.20;;;;;;5071174;28;20469;-80
2022/01/24 01:31:32;;;;;;;3.07;2.87;;;16.90;60.20;;;;;;5069815;28;20480;-79
2022/01/24 01:34:08;;;;;;;3.10;2.90;;;16.90;60.10;;;;;;5066064;28;20473;-78
2022/01/24 01:37:01;;;;;;;2.90;2.70;;;16.90;60.00;;;;;;5068831;28;20437;-78
2022/01/24 01:39:50;;;;;;;3.70;3.30;;;16.90;60.10;;;;;;5070496;28;20504;-78
2022/01/24 01:53:45;;;;;;;3.70;3.40;;;16.80;60.20;;;;;;5073359;28;20471;-78
2022/01/24 01:56:13;;;;;;;3.70;3.40;;;16.80;60.10;;;;;;5074790;28;20441;-79
2022/01/24 01:58:41;;;;;;;3.37;3.10;;;16.80;60.20;;;;;;5074963;28;21036;-78
2022/01/24 02:01:09;;;;;;;4.37;3.40;;;16.80;60.90;;;;;;5074659;28;20529;-78
2022/01/24 02:03:39;;;;;;;3.77;3.47;;;16.80;60.20;;;;;;5070593;28;20529;-78
2022/01/24 02:06:08;;;;;;;3.60;3.30;;;16.80;60.10;;;;;;5074577;28;20473;-78
2022/01/24 02:08:37;;;;;;;3.23;2.97;;;16.80;60.20;;;;;;5072125;28;21095;-78
2022/01/24 02:11:05;;;;;;;3.80;3.50;;;16.80;60.20;;;;;;5075330;28;20487;-78
2022/01/24 02:13:34;;;;;;;3.60;3.30;;;16.80;60.10;;;;;;5074878;28;20453;-78
2022/01/24 02:16:10;;;;;;;3.83;3.20;;;16.80;60.20;;;;;;5074626;28;20497;-79
2022/01/24 02:18:47;;;;;;;3.70;3.40;;;16.80;60.10;;;;;;5072630;28;20456;-78
2022/01/24 02:21:28;;;;;;;3.90;3.50;;;16.80;60.20;;;;;;5069794;28;20453;-78
2022/01/24 02:23:59;;;;;;;6.03;3.57;;;16.80;60.20;;;;;;5072667;28;20449;-78
2022/01/24 02:26:26;;;;;;;3.47;3.20;;;16.80;60.20;;;;;;5074676;28;20457;-78
2022/01/24 02:29:10;;;;;;;3.57;3.27;;;16.80;60.20;;;;;;5074756;28;20481;-79
2022/01/24 02:31:42;;;;;;;3.33;3.03;;;16.80;60.10;;;;;;5075327;28;20532;-78
2022/01/24 02:34:37;;;;;;;4.53;3.33;;;16.80;60.20;;;;;;5074912;28;20564;-78
2022/01/24 02:37:09;;;;;;;4.10;3.37;;;16.80;60.10;;;;;;5057014;28;20441;-77
2022/01/24 02:39:49;;;;;;;3.90;3.60;;;16.80;60.20;;;;;;5072376;28;20500;-78
2022/01/24 02:51:11;;;;;;;3.90;3.60;;;16.70;60.40;;;;;;5012159;28;20608;-79
2022/01/24 02:53:40;;;;;;;4.17;3.83;;;16.80;60.30;;;;;;5069445;28;20461;-79
2022/01/24 02:56:08;;;;;;;4.07;3.77;;;16.70;60.30;;;;;;5072352;28;20549;-79
2022/01/24 02:58:36;;;;;;;3.97;3.60;;;16.70;60.30;;;;;;5072957;28;20501;-79
2022/01/24 03:01:06;;;;;;;4.23;3.80;;;16.70;60.20;;;;;;5074394;28;20489;-79
2022/01/24 03:03:36;;;;;;;4.67;4.27;;;16.70;60.10;;;;;;5074486;28;20465;-79
2022/01/24 03:06:05;;;;;;;4.20;3.80;;;16.70;60.30;;;;;;5074429;28;20487;-79
2022/01/24 03:08:32;;;;;;;4.57;4.17;;;16.80;60.20;;;;;;5073460;28;20478;-79
2022/01/24 03:11:02;;;;;;;4.70;4.07;;;16.70;60.20;;;;;;5073590;28;20520;-79
2022/01/24 03:13:33;;;;;;;4.40;4.00;;;16.80;60.30;;;;;;5066589;28;20909;-79
2022/01/24 03:16:03;;;;;;;4.00;3.70;;;16.80;60.30;;;;;;5073846;28;20473;-79
2022/01/24 03:18:31;;;;;;;5.40;4.10;;;16.80;60.30;;;;;;5070773;28;20476;-79
2022/01/24 03:21:00;;;;;;;4.80;4.00;;;16.80;60.20;;;;;;5074193;28;20434;-79
2022/01/24 03:23:28;;;;;;;3.90;3.60;;;16.80;60.20;;;;;;5070726;28;21055;-79
2022/01/24 03:25:56;;;;;;;6.33;4.23;;;16.80;60.30;;;;;;5083872;28;20521;-79
2022/01/24 03:28:26;;;;;;;3.67;3.37;;;16.80;60.30;;;;;;5071146;28;20492;-79
2022/01/24 03:30:54;;;;;;;3.70;3.40;;;16.80;60.20;;;;;;5070263;28;20460;-79
2022/01/24 03:33:22;;;;;;;4.37;3.97;;;16.80;60.10;;;;;;5059721;28;20549;-78
2022/01/24 03:35:50;;;;;;;4.10;3.80;;;16.70;60.20;;;;;;5052382;28;20562;-79
2022/01/24 03:38:18;;;;;;;5.43;4.47;;;16.80;60.30;;;;;;5063719;28;20533;-79
2022/01/24 03:40:46;;;;;;;4.90;4.40;;;16.70;60.20;;;;;;5075118;28;20434;-79
2022/01/24 03:43:14;;;;;;;4.97;4.47;;;16.70;60.20;;;;;;5075503;28;20476;-80
2022/01/24 03:45:46;;;;;;;4.83;4.33;;;16.70;60.20;;;;;;5079693;28;20453;-80
2022/01/24 03:48:26;;;;;;;4.23;3.90;;;16.70;60.10;;;;;;5076491;28;20453;-80
2022/01/24 03:50:55;;;;;;;5.10;4.20;;;16.70;60.20;;;;;;5080857;28;20514;-80
2022/01/24 03:53:22;;;;;;;4.43;4.03;;;16.70;60.30;;;;;;5080784;28;20500;-80
2022/01/24 03:55:50;;;;;;;4.80;4.23;;;16.70;60.30;;;;;;5080629;28;20473;-80
2022/01/24 03:58:18;;;;;;;6.60;4.57;;;16.70;60.30;;;;;;5076525;28;20569;-80
2022/01/24 04:00:48;;;;;;;4.30;3.90;;;16.70;60.40;;;;;;5080570;28;20442;-80
2022/01/24 04:03:16;;;;;;;5.13;4.53;;;16.70;60.30;;;;;;5080305;28;20457;-80
2022/01/24 04:05:45;;;;;;;5.53;4.90;;;16.70;60.20;;;;;;5075958;28;20527;-80
2022/01/24 04:08:12;;;;;;;4.80;4.33;;;16.70;60.40;;;;;;5082592;28;20493;-80
2022/01/24 04:10:43;;;;;;;5.20;4.70;;;16.70;60.10;;;;;;5079210;28;20480;-80
2022/01/24 04:13:23;;;;;;;4.20;3.80;;;16.70;60.30;;;;;;5079908;28;20513;-80
2022/01/24 04:16:12;;;;;;;7.10;5.07;;;16.70;60.30;;;;;;5079697;28;20445;-80
2022/01/24 04:18:49;;;;;;;6.33;5.03;;;16.70;60.30;;;;;;5079930;28;20438;-79
2022/01/24 04:21:25;;;;;;;5.43;4.90;;;16.70;60.20;;;;;;5079883;28;20441;-79
2022/01/24 04:23:58;;;;;;;7.30;5.23;;;16.70;60.40;;;;;;5077830;28;20460;-80
2022/01/24 04:26:27;;;;;;;5.00;4.60;;;16.70;60.20;;;;;;5075846;28;20457;-80
2022/01/24 04:28:55;;;;;;;4.73;4.30;;;16.70;60.30;;;;;;5078866;28;20508;-80
2022/01/24 04:31:25;;;;;;;5.60;5.00;;;16.70;60.20;;;;;;5079631;28;20501;-80
2022/01/24 04:33:53;;;;;;;5.47;4.97;;;16.70;60.40;;;;;;5080851;28;20462;-80
2022/01/24 04:36:21;;;;;;;4.90;4.40;;;16.70;60.40;;;;;;5080255;28;20433;-80
2022/01/24 04:38:49;;;;;;;7.70;5.10;;;16.70;60.20;;;;;;5078858;28;20465;-80
2022/01/24 04:41:21;;;;;;;5.27;4.67;;;16.70;60.10;;;;;;5078195;28;20433;-80
2022/01/24 04:44:07;;;;;;;6.30;5.30;;;16.70;60.20;;;;;;5075945;28;20477;-79
2022/01/24 04:52:24;;;;;;;6.67;5.30;;;16.70;60.30;;;;;;5077614;28;20501;-80
2022/01/24 04:54:52;;;;;;;6.50;5.80;;;16.70;60.20;;;;;;5077881;28;20496;-81
2022/01/24 04:57:22;;;;;;;9.97;5.90;;;16.70;60.10;;;;;;5077423;28;20426;-80
2022/01/24 04:59:50;;;;;;;6.23;5.40;;;16.70;60.10;;;;;;5075221;28;20456;-80
2022/01/24 05:02:20;;;;;;;6.30;5.40;;;16.60;60.10;;;;;;5068718;28;20537;-80
2022/01/24 05:04:48;;;;;;;7.40;5.80;;;16.70;60.40;;;;;;5072125;28;20552;-80
2022/01/24 05:07:18;;;;;;;5.77;5.20;;;16.70;60.20;;;;;;5064568;28;20549;-80
2022/01/24 05:09:52;;;;;;;6.57;4.80;;;16.70;60.20;;;;;;5090865;28;20554;-80
2022/01/24 05:12:29;;;;;;;5.70;5.10;;;16.70;60.20;;;;;;5095467;28;20539;-80
2022/01/24 05:23:30;;;;;;;6.90;5.27;;;16.70;60.20;;;;;;5054735;28;20458;-80
2022/01/24 05:26:00;;;;;;;6.20;5.07;;;16.60;60.10;;;;;;5055037;28;20517;-80
2022/01/24 05:28:28;;;;;;;5.50;5.00;;;16.60;60.20;;;;;;5054124;28;20493;-80
2022/01/24 05:30:58;;;;;;;6.40;5.33;;;16.60;60.10;;;;;;5054791;28;20510;-80
2022/01/24 05:33:28;;;;;;;6.83;4.87;;;16.60;60.10;;;;;;5055822;28;20451;-80
2022/01/24 05:35:56;;;;;;;6.53;5.17;;;16.60;60.20;;;;;;5055018;28;20500;-80
2022/01/24 05:38:25;;;;;;;6.03;5.30;;;16.60;60.00;;;;;;5073312;28;20469;-80
2022/01/24 05:40:53;;;;;;;5.30;4.80;;;16.70;60.50;;;;;;5075205;28;20457;-80
2022/01/24 05:43:21;;;;;;;7.37;5.80;;;16.60;60.10;;;;;;5074759;28;20485;-80
2022/01/24 05:45:49;;;;;;;7.07;5.73;;;16.70;60.20;;;;;;5075410;28;20460;-80
2022/01/24 05:48:18;;;;;;;7.57;6.00;;;16.60;60.30;;;;;;5074413;28;20436;-81
2022/01/24 05:50:47;;;;;;;6.83;5.70;;;16.60;60.20;;;;;;5074622;28;20560;-80
2022/01/24 05:53:14;;;;;;;6.60;5.27;;;16.60;60.10;;;;;;5069209;28;20545;-80
2022/01/24 05:55:43;;;;;;;7.07;5.63;;;16.60;60.20;;;;;;5074923;28;20437;-80
2022/01/24 05:58:10;;;;;;;9.10;5.33;;;16.60;60.20;;;;;;5074787;28;20438;-80
2022/01/24 06:00:39;;;;;;;7.23;5.37;;;16.70;60.30;;;;;;5074763;28;20524;-81
2022/01/24 06:03:07;;;;;;;6.77;5.40;;;16.60;60.20;;;;;;5074775;28;20552;-80
2022/01/24 06:05:34;;;;;;;7.40;5.63;;;16.60;60.30;;;;;;5075383;28;20437;-80
2022/01/24 06:08:04;;;;;;;7.73;5.73;;;16.60;60.20;;;;;;5075713;28;20483;-80
2022/01/24 06:10:33;;;;;;;6.30;5.40;;;16.60;60.10;;;;;;5075238;28;20562;-80
2022/01/24 06:13:00;;;;;;;6.63;5.77;;;16.60;60.20;;;;;;5069739;28;21005;-80
2022/01/24 06:15:28;;;;;;;7.03;5.77;;;16.60;60.20;;;;;;5074839;28;20497;-81
2022/01/24 06:17:57;;;;;;;8.50;6.23;;;16.60;60.00;;;;;;5075527;28;20448;-80
2022/01/24 06:20:25;;;;;;;6.90;6.07;;;16.60;60.20;;;;;;5074372;28;21007;-80
2022/01/24 06:22:53;;;;;;;8.87;5.83;;;16.60;60.20;;;;;;5073980;28;20532;-80
2022/01/24 06:25:24;;;;;;;6.97;5.90;;;16.60;60.10;;;;;;5075265;28;20444;-80
2022/01/24 06:27:52;;;;;;;9.13;6.43;;;16.60;60.20;;;;;;5075179;28;20476;-80
2022/01/24 06:30:20;;;;;;;6.47;5.57;;;16.60;60.20;;;;;;5072925;28;20465;-80
2022/01/24 06:32:47;;;;;;;7.30;5.60;;;16.60;60.20;;;;;;5078960;28;20536;-80
2022/01/24 06:35:16;;;;;;;7.43;6.07;;;16.60;60.20;;;;;;5078807;28;20478;-80
2022/01/24 06:37:44;;;;;;;7.30;5.83;;;16.60;60.20;;;;;;5078994;28;20430;-80
2022/01/24 06:40:12;;;;;;;6.60;5.50;;;16.60;60.10;;;;;;5078654;28;20457;-80
2022/01/24 06:42:42;;;;;;;8.60;6.50;;;16.60;60.20;;;;;;5077760;28;20469;-80
2022/01/24 06:45:10;;;;;;;6.60;5.77;;;16.60;60.20;;;;;;5071623;28;20469;-80
2022/01/24 06:47:38;;;;;;;7.53;5.53;;;16.60;60.30;;;;;;5074142;28;21008;-80
2022/01/24 06:50:06;;;;;;;9.40;6.40;;;16.60;60.20;;;;;;5077931;28;20560;-80
2022/01/24 06:52:35;;;;;;;10.30;7.70;;;16.60;60.30;;;;;;5078943;28;20520;-80
2022/01/24 06:55:03;;;;;;;8.37;6.43;;;16.60;60.30;;;;;;5079053;28;20464;-80
2022/01/24 06:57:30;;;;;;;11.53;7.50;;;16.60;60.30;;;;;;5079658;28;20461;-80
2022/01/24 07:00:00;;;;;;;8.30;6.57;;;16.60;60.20;;;;;;5077944;28;20520;-80
2022/01/24 07:02:28;;;;;;;10.40;7.10;;;16.60;60.30;;;;;;5076913;28;20575;-80
2022/01/24 07:04:56;;;;;;;8.60;6.33;;;16.60;60.20;;;;;;5077259;28;20536;-80
2022/01/24 07:07:24;;;;;;;8.57;6.67;;;16.50;60.00;;;;;;5078020;28;20525;-80
2022/01/24 07:09:52;;;;;;;8.40;7.07;;;16.60;60.20;;;;;;5077339;28;20475;-80
2022/01/24 07:12:22;;;;;;;10.00;6.83;;;16.50;60.20;;;;;;5077641;28;20541;-80
2022/01/24 07:14:49;;;;;;;7.33;6.10;;;16.50;60.30;;;;;;5077372;28;20519;-80
2022/01/24 07:17:32;;;;;;;8.47;6.30;;;16.60;60.40;;;;;;5077973;28;20426;-80
2022/01/24 07:20:00;;;;;;;7.30;6.23;;;16.60;60.30;;;;;;5075712;28;20449;-80
2022/01/24 07:22:27;;;;;;;9.90;7.20;;;16.60;60.20;;;;;;5076919;28;20536;-81
2022/01/24 07:24:55;;;;;;;8.77;6.80;;;16.60;60.20;;;;;;5077639;28;20470;-80
2022/01/24 07:27:24;;;;;;;7.63;6.30;;;16.60;60.30;;;;;;5077429;28;20541;-80
2022/01/24 07:29:51;;;;;;;7.53;6.37;;;16.60;60.30;;;;;;5077914;28;20442;-80
2022/01/24 07:32:21;;;;;;;10.23;7.73;;;16.60;60.40;;;;;;5076941;28;20536;-80
2022/01/24 07:34:50;;;;;;;8.83;6.73;;;16.60;60.20;;;;;;5073342;28;20508;-80
2022/01/24 07:37:18;;;;;;;13.10;7.57;;;16.60;60.10;;;;;;5073914;28;20515;-80
2022/01/24 07:39:46;;;;;;;10.10;7.30;;;16.50;60.20;;;;;;5084883;28;20442;-80
2022/01/24 07:42:28;;;;;;;8.90;6.83;;;16.50;60.10;;;;;;5075631;28;20472;-80
2022/01/24 07:44:56;;;;;;;10.40;7.77;;;16.60;60.30;;;;;;5076980;28;20450;-80
2022/01/24 07:47:27;;;;;;;9.63;7.00;;;16.60;60.40;;;;;;5076913;28;20983;-80
2022/01/24 07:49:55;;;;;;;10.90;7.20;;;16.60;60.20;;;;;;5076623;28;20438;-80
2022/01/24 07:52:23;;;;;;;8.90;7.07;;;16.60;60.20;;;;;;5074147;28;20516;-80
2022/01/24 07:54:50;;;;;;;7.93;6.60;;;16.50;60.20;;;;;;5074496;28;20501;-80
2022/01/24 07:57:19;;;;;;;9.70;7.03;;;16.50;60.20;;;;;;5076857;28;20487;-80
2022/01/24 07:59:47;;;;;;;10.60;7.20;;;16.50;60.90;;;;;;5076752;28;20540;-80
2022/01/24 08:02:15;;;;;;;10.00;7.10;;;16.50;60.20;;;;;;5076164;28;20497;-80
2022/01/24 08:04:45;;;;;;;9.97;7.80;;;16.50;60.20;;;;;;5076058;28;20492;-80
2022/01/24 08:07:13;;;;;;;9.43;7.40;;;16.50;60.30;;;;;;5076312;28;20470;-80
2022/01/24 08:09:41;;;;;;;9.07;6.63;;;16.50;60.20;;;;;;5074660;28;20899;-80
2022/01/24 08:12:10;;;;;;;10.77;7.13;;;16.50;60.30;;;;;;5067974;28;20529;-80
2022/01/24 08:14:38;;;;;;;9.53;6.90;;;16.50;60.20;;;;;;5076494;28;20497;-80
2022/01/24 08:17:06;;;;;;;9.93;7.30;;;16.60;60.20;;;;;;5076068;28;21035;-80
2022/01/24 08:19:34;;;;;;;11.23;7.60;;;16.60;60.30;;;;;;5075629;28;20475;-81
2022/01/24 08:22:05;;;;;;;10.33;7.23;;;16.60;60.30;;;;;;5076327;28;20446;-81
2022/01/24 08:24:38;;;;;;;11.40;7.00;;;16.60;60.20;;;;;;5075653;28;20453;-81
2022/01/24 08:27:06;;;;;;;10.70;7.67;;;16.60;60.40;;;;;;5073949;28;20465;-81
2022/01/24 08:29:34;;;;;;;10.20;7.43;;;16.60;60.10;;;;;;5076382;28;20437;-81
2022/01/24 08:32:02;;;;;;;8.00;6.83;;;16.60;60.30;;;;;;5076264;28;20528;-81
2022/01/24 08:34:30;;;;;;;9.67;7.33;;;16.60;60.40;;;;;;5075808;28;20442;-81
2022/01/24 08:37:19;;;;;;;9.43;6.90;;;16.60;60.20;;;;;;5076219;28;20440;-81
2022/01/24 08:39:47;;;;;;;9.27;7.00;;;16.60;60.30;;;;;;5076412;28;20510;-80
2022/01/24 08:42:41;;;;;;;8.53;6.70;;;16.50;60.20;;;;;;5073796;28;20415;-80
2022/01/24 08:47:59;;;;;;;12.03;7.77;;;16.60;60.30;;;;;;5074368;28;20442;-80
2022/01/24 08:50:27;;;;;;;10.97;7.50;;;16.60;60.30;;;;;;5075641;28;20425;-80
2022/01/24 08:52:59;;;;;;;11.00;8.23;;;16.60;60.30;;;;;;5075119;28;20561;-80
2022/01/24 08:55:28;;;;;;;8.87;6.80;;;16.60;60.30;;;;;;5075546;28;20483;-80
2022/01/24 08:57:56;;;;;;;11.07;7.27;;;16.60;60.30;;;;;;5075760;28;20469;-80
2022/01/24 09:00:24;;;;;;;8.77;6.90;;;16.60;60.40;;;;;;5075331;28;20461;-80
2022/01/24 09:02:52;;;;;;;10.67;7.97;;;16.60;60.50;;;;;;5072932;28;20453;-80
2022/01/24 09:05:22;;;;;;;10.67;7.30;;;16.60;60.30;;;;;;5076233;28;20445;-81
2022/01/24 09:07:50;;;;;;;10.70;8.10;;;16.60;60.10;;;;;;5076455;28;20514;-81
2022/01/24 09:10:23;;;;;;;9.17;7.40;;;16.60;60.30;;;;;;5075741;28;20465;-81
2022/01/24 09:12:51;;;;;;;9.07;6.90;;;16.70;60.20;;;;;;5076407;28;20473;-81
2022/01/24 09:15:19;;;;;;;11.23;7.53;;;16.60;60.20;;;;;;5077553;28;20449;-80
2022/01/24 09:17:48;;;;;;;10.30;7.20;;;16.60;60.10;;;;;;5077712;28;20515;-80
2022/01/24 09:20:16;;;;;;;10.10;7.70;;;16.70;60.20;;;;;;5073348;28;20454;-80
2022/01/24 09:22:45;;;;;;;9.17;7.33;;;16.70;60.20;;;;;;5075129;28;20509;-80
2022/01/24 09:25:13;;;;;;;10.07;7.10;;;16.60;60.20;;;;;;5075517;28;20430;-80
2022/01/24 09:27:42;;;;;;;9.03;7.00;;;16.70;60.30;;;;;;5076626;28;20441;-80
2022/01/24 09:30:11;;;;;;;10.00;7.70;;;16.70;60.30;;;;;;5075634;28;20446;-80
2022/01/24 09:32:39;;;;;;;10.70;7.57;;;16.70;60.30;;;;;;5075365;28;20497;-80
2022/01/24 09:35:08;;;;;;;7.67;6.67;;;16.70;60.30;;;;;;5071160;28;20510;-80
2022/01/24 09:37:36;;;;;;;9.07;7.30;;;16.70;60.30;;;;;;5073755;28;20539;-80
2022/01/24 09:40:05;;;;;;;9.37;7.57;;;16.70;60.40;;;;;;5075419;28;20477;-80
2022/01/24 09:42:33;;;;;;;10.00;7.50;;;16.70;60.30;;;;;;5075945;28;20460;-80
2022/01/24 09:45:02;;;;;;;9.70;7.00;;;16.70;60.10;;;;;;5074873;28;20553;-80
2022/01/24 09:47:35;;;;;;;9.73;7.03;;;16.70;60.10;;;;;;5075111;28;20437;-80
2022/01/24 09:50:03;;;;;;;10.90;7.37;;;16.70;60.10;;;;;;5075411;28;20433;-80
2022/01/24 09:52:32;;;;;;;9.70;7.17;;;16.70;60.10;;;;;;5072760;28;20565;-80
2022/01/24 09:54:59;;;;;;;9.80;8.13;;;16.70;60.10;;;;;;5074167;28;20469;-80
2022/01/24 09:57:27;;;;;;;10.13;7.57;;;16.70;60.50;;;;;;5071217;28;20453;-80
2022/01/24 09:59:56;;;;;;;10.93;7.50;;;16.70;60.20;;;;;;5074341;28;20426;-80
2022/01/24 10:02:25;;;;;;;11.27;7.50;;;16.70;60.10;;;;;;5074313;28;20433;-80
2022/01/24 10:04:55;;;;;;;11.17;7.30;;;16.70;60.10;;;;;;5075741;28;20493;-80
2022/01/24 10:07:49;;;;;;;7.70;6.90;;;16.80;60.10;;;;;;5075675;28;20505;-80
2022/01/24 10:10:31;;;;;;;9.37;7.37;;;16.80;60.40;;;;;;5072107;28;20944;-78
2022/01/24 10:16:33;;;;;;;10.17;7.87;;;16.80;60.10;;;;;;5072528;28;20449;-79
2022/01/24 10:19:08;;;;;;;9.43;7.40;;;16.80;60.10;;;;;;5072156;28;20479;-78
2022/01/24 10:21:58;;;;;;;8.70;7.00;;;16.80;60.20;;;;;;5069830;28;20422;-79
2022/01/24 10:24:38;;;;;;;9.10;6.93;;;16.80;60.20;;;;;;5083788;28;20548;-81
2022/01/24 10:27:10;;;;;;;10.00;7.50;;;16.80;60.10;;;;;;5083179;28;20464;-81
2022/01/24 10:29:43;;;;;;;8.93;7.13;;;16.80;60.00;;;;;;5089326;28;20458;-80
2022/01/24 10:32:33;;;;;;;8.73;7.37;;;16.80;60.10;;;;;;5082805;28;20966;-80
2022/01/24 10:35:23;;;;;;;9.37;7.87;;;16.90;60.20;;;;;;5078472;28;20535;-80
2022/01/24 10:37:53;;;;;;;9.87;7.70;;;16.90;60.30;;;;;;5083122;28;20982;-80
2022/01/24 10:40:46;;;;;;;9.33;7.80;;;16.80;60.20;;;;;;5069661;28;20538;-79
2022/01/24 10:43:18;;;;;;;9.27;7.50;;;16.80;59.90;;;;;;5075067;28;20535;-80
2022/01/24 10:45:47;;;;;;;10.50;8.03;;;16.80;60.00;;;;;;5077313;28;20504;-79
2022/01/24 10:48:15;;;;;;;9.50;7.67;;;16.80;60.00;;;;;;5076232;28;20455;-80
2022/01/24 10:50:44;;;;;;;11.27;8.10;;;16.90;60.20;;;;;;5076526;28;20537;-79
2022/01/24 10:53:12;;;;;;;12.40;8.50;;;16.90;59.70;;;;;;5073076;28;20476;-78
2022/01/24 10:55:46;;;;;;;14.43;9.17;;;16.80;59.60;;;;;;5073493;28;21013;-78
2022/01/24 10:58:18;;;;;;;9.93;8.27;;;16.80;59.60;;;;;;5069721;28;20545;-78
2022/01/24 11:00:46;;;;;;;14.43;9.20;;;16.80;59.70;;;;;;5074611;28;20445;-78
2022/01/24 11:03:16;;;;;;;13.50;9.17;;;16.80;59.60;;;;;;5070465;28;20893;-78
2022/01/24 11:05:46;;;;;;;12.90;9.50;;;16.80;59.40;;;;;;5074564;28;20497;-78
2022/01/24 11:08:14;;;;;;;13.97;9.10;;;16.80;59.40;;;;;;5073248;28;20472;-78
2022/01/24 11:10:43;;;;;;;11.73;8.70;;;16.80;59.40;;;;;;5074276;28;20531;-78
2022/01/24 11:13:11;;;;;;;12.37;8.43;;;16.80;59.30;;;;;;5073893;28;20499;-79
2022/01/24 11:15:42;;;;;;;12.47;8.63;;;16.80;59.20;;;;;;5073479;28;20481;-79
2022/01/24 11:18:14;;;;;;;12.03;8.70;;;16.80;59.10;;;;;;5070052;28;20552;-79
2022/01/24 11:20:45;;;;;;;14.67;10.13;;;16.80;59.20;;;;;;5073484;28;20924;-79
2022/01/24 11:23:20;;;;;;;12.40;9.03;;;16.80;59.10;;;;;;5073806;28;20458;-78
2022/01/24 11:25:49;;;;;;;13.03;9.47;;;16.90;59.10;;;;;;5072787;28;20449;-78
2022/01/24 11:28:18;;;;;;;14.67;9.87;;;16.80;58.90;;;;;;5073812;28;20473;-79
2022/01/24 11:30:49;;;;;;;13.87;10.37;;;16.80;59.00;;;;;;5073714;28;20461;-78
2022/01/24 11:33:19;;;;;;;13.43;9.70;;;16.90;59.00;;;;;;5071388;28;20574;-78
2022/01/24 11:35:51;;;;;;;12.77;9.47;;;16.90;58.80;;;;;;5071395;28;20446;-78
2022/01/24 11:38:28;;;;;;;15.40;10.13;;;16.90;58.90;;;;;;5073620;28;20506;-78
2022/01/24 11:40:59;;;;;;;13.77;9.07;;;16.90;58.70;;;;;;5073867;28;20871;-79
2022/01/24 11:43:28;;;;;;;14.77;10.37;;;16.90;58.80;;;;;;5073112;28;20497;-79
2022/01/24 11:46:02;;;;;;;13.83;10.37;;;16.90;58.80;;;;;;5073259;28;21297;-78
2022/01/24 11:48:32;;;;;;;12.50;9.47;;;16.90;58.70;;;;;;5073833;28;20545;-79
2022/01/24 11:51:03;;;;;;;15.17;10.30;;;16.90;58.70;;;;;;5070729;28;20445;-79
2022/01/24 11:53:34;;;;;;;12.60;8.80;;;16.90;58.50;;;;;;5073484;28;20477;-79
2022/01/24 11:56:19;;;;;;;15.57;9.57;;;16.90;58.60;;;;;;5073969;28;20499;-79
2022/01/24 11:58:47;;;;;;;14.53;10.67;;;16.90;58.40;;;;;;5078831;28;20568;-78
2022/01/24 12:01:33;;;;;;;14.37;9.90;;;16.90;58.50;;;;;;5074175;28;20482;-79
2022/01/24 12:04:01;;;;;;;16.63;11.23;;;16.90;58.40;;;;;;5074100;28;20457;-79
2022/01/24 12:06:29;;;;;;;13.50;9.67;;;16.90;58.50;;;;;;5072249;28;20445;-78
2022/01/24 12:09:23;;;;;;;13.20;9.93;;;16.90;58.40;;;;;;5070976;28;20442;-79
2022/01/24 12:11:53;;;;;;;16.77;10.60;;;16.90;58.40;;;;;;5071962;28;20549;-78
2022/01/24 12:14:37;;;;;;;14.40;10.30;;;16.90;58.30;;;;;;5072756;28;20478;-78
2022/01/24 12:17:10;;;;;;;14.63;10.63;;;16.90;58.20;;;;;;5072313;28;20485;-78
2022/01/24 12:19:37;;;;;;;16.23;11.30;;;16.90;58.20;;;;;;5073281;28;20448;-78
2022/01/24 12:22:33;;;;;;;12.10;9.40;;;16.90;58.20;;;;;;5073318;28;20444;-78
2022/01/24 12:25:02;;;;;;;15.33;10.70;;;16.90;58.00;;;;;;5072594;28;20498;-78
2022/01/24 12:27:30;;;;;;;16.27;10.37;;;17.00;58.20;;;;;;5068720;28;20445;-78
2022/01/24 12:29:59;;;;;;;14.53;10.13;;;16.90;58.00;;;;;;5073510;28;20426;-79
2022/01/24 12:32:27;;;;;;;12.20;8.73;;;16.90;58.00;;;;;;5073748;28;20456;-79
2022/01/24 12:34:55;;;;;;;13.73;9.73;;;16.90;58.00;;;;;;5071141;28;20477;-79
2022/01/24 12:37:23;;;;;;;15.60;10.63;;;17.00;58.00;;;;;;5074177;28;20967;-79
2022/01/24 12:39:54;;;;;;;13.43;9.50;;;16.90;57.90;;;;;;5074975;28;20571;-79
2022/01/24 12:42:39;;;;;;;15.27;10.43;;;16.90;57.80;;;;;;5073026;28;20473;-79
2022/01/24 12:48:11;;;;;;;18.87;11.37;;;16.90;57.70;;;;;;5074815;28;20807;-79
2022/01/24 12:50:42;;;;;;;14.80;10.80;;;16.90;57.80;;;;;;5076056;28;20428;-79
2022/01/24 12:53:13;;;;;;;17.97;11.70;;;16.90;57.80;;;;;;5075242;28;20473;-79
2022/01/24 12:55:42;;;;;;;19.03;11.20;;;16.90;58.30;;;;;;5074930;28;20442;-79
2022/01/24 12:58:11;;;;;;;18.00;11.10;;;16.90;57.70;;;;;;5075601;28;20432;-79
2022/01/24 13:00:45;;;;;;;16.57;11.33;;;16.90;57.80;;;;;;5084930;28;20944;-79
2022/01/24 13:03:16;;;;;;;17.17;10.90;;;16.90;57.60;;;;;;5071913;28;20461;-79
2022/01/24 13:05:43;;;;;;;15.60;11.33;;;16.90;57.50;;;;;;5074723;28;20434;-79
2022/01/24 13:08:15;;;;;;;16.03;11.10;;;16.90;57.50;;;;;;5074160;28;20513;-79
2022/01/24 13:10:44;;;;;;;16.20;10.43;;;16.90;57.40;;;;;;5073210;28;20476;-78
2022/01/24 13:13:15;;;;;;;17.40;11.07;;;16.90;57.50;;;;;;5073597;28;20482;-79
2022/01/24 13:21:17;;;;;;;17.60;11.33;;;16.90;57.40;;;;;;5069245;28;20445;-79
2022/01/24 13:23:50;;;;;;;17.97;11.67;;;16.90;57.30;;;;;;5068594;28;20529;-79
2022/01/24 13:26:19;;;;;;;16.63;11.63;;;16.90;57.30;;;;;;5067996;28;20450;-79
2022/01/24 13:28:48;;;;;;;17.47;12.13;;;16.80;57.30;;;;;;5068746;28;20518;-79
2022/01/24 13:31:16;;;;;;;19.80;12.57;;;16.90;57.30;;;;;;5061692;28;20474;-79
2022/01/24 13:33:46;;;;;;;17.73;11.40;;;16.90;57.30;;;;;;5063487;28;20478;-79
2022/01/24 13:36:16;;;;;;;20.50;12.57;;;16.80;57.20;;;;;;5062109;28;20469;-79
2022/01/24 13:38:46;;;;;;;18.40;11.80;;;16.80;57.10;;;;;;5066322;28;20450;-79
2022/01/24 13:41:14;;;;;;;17.30;12.60;;;16.80;57.20;;;;;;5071930;28;20480;-79
2022/01/24 13:43:53;;;;;;;19.07;12.33;;;16.80;57.10;;;;;;5073440;28;20892;-79
2022/01/24 13:46:23;;;;;;;16.60;11.00;;;16.80;57.10;;;;;;5073767;28;20437;-79
2022/01/24 13:48:51;;;;;;;17.10;12.17;;;16.80;57.10;;;;;;5072795;28;20437;-79
2022/01/24 13:51:20;;;;;;;18.53;11.80;;;16.80;57.10;;;;;;5067848;28;20472;-79
2022/01/24 13:53:49;;;;;;;16.80;11.53;;;16.80;57.00;;;;;;5071804;28;20569;-79
2022/01/24 13:56:19;;;;;;;19.07;11.67;;;16.80;57.00;;;;;;5077919;28;20524;-79
2022/01/24 13:59:08;;;;;;;18.43;12.20;;;16.80;56.90;;;;;;5073018;28;20434;-79
2022/01/24 14:01:36;;;;;;;17.03;11.80;;;16.80;56.80;;;;;;5072404;28;20543;-79
2022/01/24 14:04:05;;;;;;;20.00;12.40;;;16.80;57.00;;;;;;5072993;28;20988;-79
2022/01/24 14:06:34;;;;;;;16.03;10.87;;;16.80;56.90;;;;;;5072940;28;20516;-79
2022/01/24 14:09:07;;;;;;;18.33;11.80;;;16.70;56.90;;;;;;5072412;28;20471;-79
2022/01/24 14:11:43;;;;;;;22.17;12.30;;;16.70;56.90;;;;;;5069553;28;20470;-78